Time;durP1;ratioP1;P1;durP2;ratioP2;P2;SDS_P1;SDS_P2;PMS_P1;PMS_P2;Temp;Humidity;BMP_temperature;BMP_pressure;BME280_temperature;BME280_humidity;BME280_pressure;Samples;Min_cycle;Max_cycle;Signal;HPM_P1;HPM_P2
2023/06/24 00:02:14;;;;;;;9.23;7.93;;;18.60;99.90;;;;;;5033731;28;20045;-75
2023/06/24 00:04:39;;;;;;;11.20;7.73;;;18.60;99.90;;;;;;5033814;28;20501;-74
2023/06/24 00:07:06;;;;;;;9.40;8.40;;;18.60;99.90;;;;;;5016682;28;20061;-75
2023/06/24 00:09:32;;;;;;;10.97;8.50;;;18.50;99.90;;;;;;5017325;28;20137;-75
2023/06/24 00:12:01;;;;;;;12.93;8.40;;;18.40;99.90;;;;;;5033329;28;20140;-74
2023/06/24 00:14:27;;;;;;;9.47;7.63;;;18.40;99.90;;;;;;5033622;28;20049;-74
2023/06/24 00:16:54;;;;;;;11.40;7.93;;;18.40;99.90;;;;;;5033413;28;20140;-74
2023/06/24 00:19:21;;;;;;;10.13;8.33;;;18.30;99.90;;;;;;5034276;28;20132;-75
2023/06/24 00:21:50;;;;;;;9.33;7.97;;;18.20;99.90;;;;;;5033225;28;20096;-75
2023/06/24 00:24:17;;;;;;;9.53;8.20;;;18.20;99.90;;;;;;5033185;28;20053;-75
2023/06/24 00:26:43;;;;;;;10.57;8.07;;;18.20;99.90;;;;;;5034846;28;20045;-75
2023/06/24 00:29:09;;;;;;;9.67;7.87;;;18.30;99.90;;;;;;5016243;28;20377;-75
2023/06/24 00:31:35;;;;;;;9.67;8.13;;;18.20;99.90;;;;;;5016978;28;20053;-75
2023/06/24 00:34:00;;;;;;;10.60;8.00;;;18.20;99.90;;;;;;5000501;28;20064;-75
2023/06/24 00:36:26;;;;;;;12.77;8.60;;;18.20;99.90;;;;;;5033924;28;20042;-75
2023/06/24 00:38:52;;;;;;;11.17;8.37;;;18.20;99.90;;;;;;5033956;28;20050;-75
2023/06/24 00:41:18;;;;;;;11.80;8.00;;;18.20;99.90;;;;;;5033955;28;20045;-75
2023/06/24 00:43:45;;;;;;;9.97;7.67;;;18.20;99.90;;;;;;5016457;28;20083;-75
2023/06/24 00:46:11;;;;;;;10.70;8.20;;;18.10;99.90;;;;;;5032919;28;20048;-75
2023/06/24 00:48:36;;;;;;;10.17;7.93;;;18.20;99.90;;;;;;5000306;28;20041;-75
2023/06/24 00:51:02;;;;;;;9.23;8.03;;;18.20;99.90;;;;;;5032954;28;20078;-75
2023/06/24 00:53:28;;;;;;;10.27;8.07;;;18.20;99.90;;;;;;5032276;28;20115;-75
2023/06/24 00:56:01;;;;;;;11.77;8.17;;;18.20;99.90;;;;;;5016826;28;20049;-74
2023/06/24 00:58:31;;;;;;;9.50;7.83;;;18.10;99.90;;;;;;5015958;28;20051;-75
2023/06/24 01:00:57;;;;;;;11.93;8.47;;;18.00;99.90;;;;;;4984175;28;20060;-75
2023/06/24 01:03:27;;;;;;;12.23;8.87;;;18.00;99.90;;;;;;5015968;28;20136;-75
2023/06/24 01:05:54;;;;;;;11.57;8.90;;;18.00;99.90;;;;;;5032381;28;20057;-75
2023/06/24 01:08:22;;;;;;;10.77;9.13;;;18.00;99.90;;;;;;5032409;28;20057;-75
2023/06/24 01:10:49;;;;;;;11.97;8.97;;;18.00;99.90;;;;;;5032460;28;20060;-75
2023/06/24 01:13:16;;;;;;;13.40;9.07;;;18.00;99.90;;;;;;5033346;28;20164;-75
2023/06/24 01:15:41;;;;;;;13.00;9.47;;;18.00;99.90;;;;;;5032357;28;20064;-75
2023/06/24 01:18:11;;;;;;;10.63;8.53;;;17.90;99.90;;;;;;4999602;28;20057;-75
2023/06/24 01:21:09;;;;;;;13.83;8.20;;;17.90;99.90;;;;;;5032241;28;20053;-75
2023/06/24 01:23:55;;;;;;;10.53;8.90;;;17.80;99.90;;;;;;5014962;28;20053;-75
2023/06/24 01:27:00;;;;;;;12.17;9.00;;;17.80;99.90;;;;;;5017124;28;20057;-75
2023/06/24 01:29:45;;;;;;;12.50;8.63;;;17.80;99.90;;;;;;5032149;28;20107;-75
2023/06/24 01:32:50;;;;;;;10.95;9.38;;;17.80;99.90;;;;;;5032146;28;20068;-75
2023/06/24 01:35:20;;;;;;;11.40;9.32;;;17.70;99.90;;;;;;5008190;28;20490;-75
2023/06/24 01:37:51;;;;;;;11.03;8.97;;;17.70;99.90;;;;;;5033256;28;20054;-75
2023/06/24 01:40:26;;;;;;;12.90;8.87;;;17.70;99.90;;;;;;5032777;28;20113;-75
2023/06/24 01:42:53;;;;;;;10.70;8.90;;;17.60;99.90;;;;;;5015507;28;20053;-75
2023/06/24 01:45:26;;;;;;;12.00;9.77;;;17.60;99.90;;;;;;5031671;28;20057;-75
2023/06/24 01:48:02;;;;;;;12.40;10.00;;;17.60;99.90;;;;;;5031836;28;20466;-74
2023/06/24 01:50:31;;;;;;;11.47;9.00;;;17.60;99.90;;;;;;5031801;28;20057;-75
2023/06/24 01:52:57;;;;;;;11.93;9.97;;;17.60;99.90;;;;;;5031759;28;20041;-75
2023/06/24 01:55:24;;;;;;;11.33;9.20;;;17.60;99.90;;;;;;5032599;28;20049;-75
2023/06/24 01:57:51;;;;;;;10.70;9.57;;;17.60;99.90;;;;;;5015026;28;20183;-75
2023/06/24 02:00:18;;;;;;;12.27;9.73;;;17.50;99.90;;;;;;5031063;28;20125;-75
2023/06/24 02:02:46;;;;;;;14.00;9.67;;;17.40;99.90;;;;;;5032112;28;20097;-75
2023/06/24 02:05:12;;;;;;;11.57;9.33;;;17.30;99.90;;;;;;5031337;28;20057;-75
2023/06/24 02:07:40;;;;;;;13.60;9.60;;;17.30;99.90;;;;;;5031455;28;20057;-75
2023/06/24 02:10:08;;;;;;;11.80;9.17;;;17.30;99.90;;;;;;5031512;28;20091;-75
2023/06/24 02:12:34;;;;;;;13.43;9.33;;;17.30;99.90;;;;;;5031349;28;20045;-75
2023/06/24 02:15:02;;;;;;;11.63;10.27;;;17.30;99.90;;;;;;4999285;28;20455;-75
2023/06/24 02:17:29;;;;;;;11.73;8.33;;;17.40;99.90;;;;;;5032025;28;20128;-75
2023/06/24 02:19:56;;;;;;;12.10;10.07;;;17.30;99.90;;;;;;5015143;28;20038;-74
2023/06/24 02:22:23;;;;;;;11.53;9.60;;;17.40;99.90;;;;;;5014509;28;20107;-74
2023/06/24 02:24:50;;;;;;;12.37;9.40;;;17.40;99.90;;;;;;5014804;28;20041;-74
2023/06/24 02:27:17;;;;;;;12.30;9.70;;;17.40;99.90;;;;;;5014973;28;20041;-74
2023/06/24 02:29:43;;;;;;;11.90;9.53;;;17.30;99.90;;;;;;4998426;28;20041;-74
2023/06/24 02:32:09;;;;;;;14.07;10.30;;;17.30;99.90;;;;;;5032570;28;20053;-74
2023/06/24 02:34:35;;;;;;;12.23;9.87;;;17.30;99.90;;;;;;5032102;28;20494;-74
2023/06/24 02:37:01;;;;;;;12.13;9.40;;;17.30;99.90;;;;;;5031235;28;20042;-74
2023/06/24 02:39:27;;;;;;;12.30;9.37;;;17.30;99.90;;;;;;5030778;28;20049;-75
2023/06/24 02:41:53;;;;;;;11.43;10.00;;;17.20;99.90;;;;;;5032076;28;20180;-75
2023/06/24 02:44:19;;;;;;;12.53;9.90;;;17.20;99.90;;;;;;5014665;28;20128;-76
2023/06/24 02:46:46;;;;;;;10.50;9.27;;;17.20;99.90;;;;;;5031001;28;20393;-75
2023/06/24 02:49:15;;;;;;;14.03;10.33;;;17.20;99.90;;;;;;5032341;28;20050;-75
2023/06/24 02:51:41;;;;;;;12.97;10.07;;;17.20;99.90;;;;;;5014206;28;20696;-76
2023/06/24 02:54:07;;;;;;;10.73;9.10;;;17.10;99.90;;;;;;5032184;28;20494;-75
2023/06/24 02:56:35;;;;;;;11.70;9.97;;;17.10;99.90;;;;;;5031362;28;20120;-75
2023/06/24 02:59:01;;;;;;;11.63;9.57;;;17.10;99.90;;;;;;5030919;28;20564;-75
2023/06/24 03:01:27;;;;;;;11.50;8.93;;;17.00;99.90;;;;;;5014516;28;20033;-75
2023/06/24 03:03:56;;;;;;;11.73;9.27;;;17.00;99.90;;;;;;5031827;28;20042;-75
2023/06/24 03:06:23;;;;;;;12.43;9.13;;;17.00;99.90;;;;;;5014125;28;20489;-76
2023/06/24 03:08:50;;;;;;;13.10;9.60;;;17.00;99.90;;;;;;5031107;28;20053;-75
2023/06/24 03:11:16;;;;;;;12.40;9.77;;;16.90;99.90;;;;;;5030543;28;20049;-75
2023/06/24 03:13:43;;;;;;;15.13;9.40;;;16.90;99.90;;;;;;5031847;28;20530;-75
2023/06/24 03:16:12;;;;;;;10.93;9.60;;;16.90;99.90;;;;;;5014621;28;20069;-75
2023/06/24 03:18:46;;;;;;;12.63;9.87;;;16.90;99.90;;;;;;5031686;28;20193;-75
2023/06/24 03:21:12;;;;;;;12.00;9.02;;;16.90;99.90;;;;;;5030788;28;20389;-75
2023/06/24 03:23:39;;;;;;;12.90;10.07;;;16.90;99.90;;;;;;5031482;28;20047;-75
2023/06/24 03:26:07;;;;;;;13.63;9.63;;;16.90;99.90;;;;;;5032002;28;20482;-75
2023/06/24 03:28:33;;;;;;;11.87;10.57;;;16.90;99.90;;;;;;5032689;28;20501;-75
2023/06/24 03:30:59;;;;;;;12.17;9.23;;;16.90;99.90;;;;;;5029571;28;20045;-74
2023/06/24 03:33:26;;;;;;;12.23;8.97;;;16.90;99.90;;;;;;5017931;28;20041;-77
2023/06/24 03:35:53;;;;;;;13.50;10.60;;;16.90;99.90;;;;;;5034365;28;20136;-75
2023/06/24 03:38:18;;;;;;;12.53;9.60;;;16.90;99.90;;;;;;5034181;28;20564;-75
2023/06/24 03:40:44;;;;;;;11.00;9.70;;;16.90;99.90;;;;;;5033873;28;20072;-75
2023/06/24 03:43:10;;;;;;;13.93;10.40;;;16.90;99.90;;;;;;5034351;28;20084;-75
2023/06/24 03:45:36;;;;;;;11.00;9.57;;;16.90;99.90;;;;;;5050381;28;20111;-75
2023/06/24 03:48:01;;;;;;;12.33;9.67;;;16.90;99.90;;;;;;5001565;28;20053;-75
2023/06/24 03:50:27;;;;;;;13.10;10.17;;;16.90;99.90;;;;;;5033813;28;20060;-76
2023/06/24 03:52:53;;;;;;;10.57;9.40;;;16.90;99.90;;;;;;5050301;28;20045;-75
2023/06/24 03:55:19;;;;;;;13.50;10.17;;;17.00;99.90;;;;;;5035092;28;20046;-75
2023/06/24 03:57:44;;;;;;;11.67;9.87;;;17.00;99.90;;;;;;5033801;28;20045;-75
2023/06/24 04:00:16;;;;;;;14.80;10.30;;;17.00;99.90;;;;;;5033156;28;20060;-75
2023/06/24 04:02:43;;;;;;;14.00;10.33;;;16.90;99.90;;;;;;5033428;28;20486;-75
2023/06/24 04:05:09;;;;;;;11.53;9.37;;;16.90;99.90;;;;;;5033403;28;20084;-75
2023/06/24 04:07:35;;;;;;;11.77;9.70;;;16.90;99.90;;;;;;5033677;28;20068;-75
2023/06/24 04:10:03;;;;;;;11.43;9.57;;;17.00;99.90;;;;;;5016917;28;20092;-75
2023/06/24 04:12:29;;;;;;;12.23;9.97;;;17.00;99.90;;;;;;5034580;28;20128;-76
2023/06/24 04:14:55;;;;;;;12.57;10.00;;;17.10;99.90;;;;;;5033814;28;20095;-75
2023/06/24 04:17:21;;;;;;;12.63;11.00;;;17.10;99.90;;;;;;5033452;28;20053;-75
2023/06/24 04:19:46;;;;;;;14.00;10.43;;;17.20;99.90;;;;;;5034143;28;20136;-75
2023/06/24 04:22:12;;;;;;;10.87;9.77;;;17.30;99.90;;;;;;5017168;28;20140;-75
2023/06/24 04:24:38;;;;;;;11.40;10.03;;;17.30;99.90;;;;;;5033269;28;20136;-76
2023/06/24 04:27:05;;;;;;;12.17;10.20;;;17.40;99.90;;;;;;5033586;28;20129;-76
2023/06/24 04:29:31;;;;;;;17.20;10.20;;;17.40;99.90;;;;;;5033074;28;20053;-76
2023/06/24 04:31:56;;;;;;;11.47;9.67;;;17.50;99.90;;;;;;5016818;28;20379;-75
2023/06/24 04:34:22;;;;;;;12.90;10.23;;;17.50;99.90;;;;;;5049679;28;20049;-75
2023/06/24 04:36:48;;;;;;;13.57;10.57;;;17.50;99.90;;;;;;5049234;28;20149;-75
2023/06/24 04:39:14;;;;;;;11.70;10.00;;;17.60;99.90;;;;;;5033251;28;20046;-75
2023/06/24 04:41:39;;;;;;;12.43;9.67;;;17.60;99.90;;;;;;5049443;28;20072;-75
2023/06/24 04:44:05;;;;;;;11.60;10.40;;;17.70;99.90;;;;;;5033310;28;20049;-75
2023/06/24 04:46:32;;;;;;;12.33;10.37;;;17.80;99.90;;;;;;5033194;28;20053;-75
2023/06/24 04:48:58;;;;;;;12.40;9.87;;;17.90;99.90;;;;;;5033855;28;20133;-75
2023/06/24 04:51:24;;;;;;;13.43;10.37;;;18.00;99.90;;;;;;5032921;28;20171;-76
2023/06/24 04:53:49;;;;;;;12.03;9.30;;;18.10;99.90;;;;;;5033717;28;20128;-75
2023/06/24 04:56:15;;;;;;;11.57;10.23;;;18.20;99.90;;;;;;5034087;28;20440;-75
2023/06/24 04:58:41;;;;;;;12.63;9.57;;;18.30;99.90;;;;;;5032596;28;20057;-75
2023/06/24 05:01:06;;;;;;;12.30;9.33;;;18.40;99.90;;;;;;5032894;28;20401;-75
2023/06/24 05:03:32;;;;;;;11.27;9.67;;;18.50;99.90;;;;;;5032696;28;20049;-75
2023/06/24 05:05:58;;;;;;;11.03;9.80;;;18.60;99.90;;;;;;5048800;28;20085;-75
2023/06/24 05:08:24;;;;;;;12.00;9.37;;;18.80;99.90;;;;;;5049096;28;20049;-75
2023/06/24 05:10:50;;;;;;;11.40;9.33;;;18.90;99.90;;;;;;5032482;28;20065;-75
2023/06/24 05:13:15;;;;;;;15.13;10.13;;;19.00;99.90;;;;;;5032764;28;20042;-75
2023/06/24 05:15:41;;;;;;;17.93;9.97;;;19.10;99.90;;;;;;5015779;28;20045;-75
2023/06/24 05:18:07;;;;;;;12.33;9.23;;;19.20;99.90;;;;;;5032555;28;20049;-75
2023/06/24 05:20:33;;;;;;;12.30;9.40;;;19.40;99.90;;;;;;5032004;28;20049;-76
2023/06/24 05:22:58;;;;;;;12.67;9.93;;;19.50;99.90;;;;;;5015772;28;20049;-75
2023/06/24 05:25:24;;;;;;;12.33;10.00;;;19.70;99.90;;;;;;5033411;28;20084;-75
2023/06/24 05:27:50;;;;;;;12.03;9.93;;;19.80;99.90;;;;;;5031975;28;20095;-75
2023/06/24 05:30:15;;;;;;;11.70;9.57;;;19.90;99.90;;;;;;5032405;28;20049;-75
2023/06/24 05:32:41;;;;;;;15.00;9.20;;;20.10;99.90;;;;;;5015576;28;20064;-75
2023/06/24 05:35:07;;;;;;;15.07;8.37;;;20.20;99.90;;;;;;5015688;28;20038;-75
2023/06/24 05:37:34;;;;;;;12.93;10.23;;;20.40;99.90;;;;;;5032269;28;20493;-75
2023/06/24 05:40:01;;;;;;;12.30;9.97;;;20.50;99.90;;;;;;5032645;28;20046;-75
2023/06/24 05:42:27;;;;;;;11.93;9.67;;;20.60;99.90;;;;;;5015793;28;20056;-75
2023/06/24 05:44:53;;;;;;;11.27;10.07;;;20.70;99.90;;;;;;5048101;28;20049;-75
2023/06/24 05:47:19;;;;;;;10.87;9.50;;;21.00;99.90;;;;;;5031873;28;20061;-75
2023/06/24 05:49:45;;;;;;;12.53;10.17;;;21.20;99.90;;;;;;5032542;28;20077;-76
2023/06/24 05:52:11;;;;;;;10.73;9.63;;;21.70;99.90;;;;;;5014996;28;20456;-76
2023/06/24 05:54:37;;;;;;;12.77;9.83;;;22.80;99.90;;;;;;5015530;28;20346;-76
2023/06/24 05:57:06;;;;;;;12.37;10.07;;;24.00;99.90;;;;;;5015285;28;20053;-76
2023/06/24 05:59:32;;;;;;;10.00;8.93;;;25.30;99.90;;;;;;5015218;28;20132;-76
2023/06/24 06:01:58;;;;;;;10.37;9.27;;;26.50;99.90;;;;;;5031295;28;20060;-76
2023/06/24 06:04:24;;;;;;;11.03;9.33;;;27.40;99.90;;;;;;5014917;28;20049;-76
2023/06/24 06:06:49;;;;;;;11.57;9.23;;;28.30;99.90;;;;;;5032485;28;20144;-76
2023/06/24 06:09:15;;;;;;;10.80;7.87;;;29.10;94.10;;;;;;5031552;28;20054;-76
2023/06/24 06:11:41;;;;;;;10.57;8.33;;;29.70;91.90;;;;;;5031580;28;20046;-76
2023/06/24 06:14:07;;;;;;;12.03;8.63;;;29.60;81.20;;;;;;5047511;28;20491;-76
2023/06/24 06:16:33;;;;;;;9.37;8.37;;;28.80;78.60;;;;;;5031253;28;20084;-76
2023/06/24 06:18:59;;;;;;;10.57;9.00;;;28.10;81.60;;;;;;5030955;28;20140;-76
2023/06/24 06:21:25;;;;;;;11.83;9.90;;;27.40;85.70;;;;;;5032899;28;20048;-76
2023/06/24 06:23:50;;;;;;;11.87;9.97;;;26.80;90.70;;;;;;5031501;28;20048;-76
2023/06/24 06:26:18;;;;;;;10.93;9.83;;;26.20;93.20;;;;;;4998311;28;20061;-75
2023/06/24 06:28:43;;;;;;;11.17;9.23;;;25.80;95.00;;;;;;5031251;28;20460;-75
2023/06/24 06:31:09;;;;;;;10.37;9.20;;;25.30;96.40;;;;;;5014543;28;20192;-76
2023/06/24 06:33:35;;;;;;;11.97;9.20;;;24.90;97.90;;;;;;5031398;28;20095;-75
2023/06/24 06:36:01;;;;;;;10.47;8.93;;;24.60;99.50;;;;;;5014702;28;20052;-75
2023/06/24 06:38:27;;;;;;;11.47;10.07;;;24.30;99.90;;;;;;5014706;28;20486;-76
2023/06/24 06:40:52;;;;;;;10.23;9.07;;;24.10;99.90;;;;;;5031056;28;20045;-76
2023/06/24 06:43:18;;;;;;;11.00;9.50;;;24.00;99.90;;;;;;4998468;28;20056;-76
2023/06/24 06:45:44;;;;;;;11.17;9.80;;;23.90;99.90;;;;;;5031169;28;20057;-75
2023/06/24 06:48:09;;;;;;;10.70;9.57;;;23.90;99.90;;;;;;5047643;28;20061;-76
2023/06/24 06:50:35;;;;;;;10.73;9.57;;;23.90;99.90;;;;;;5031401;28;20502;-75
2023/06/24 06:53:01;;;;;;;11.97;10.50;;;24.00;99.90;;;;;;5010094;28;20037;-74
2023/06/24 06:55:27;;;;;;;11.83;9.77;;;24.00;99.90;;;;;;5014437;28;20131;-75
2023/06/24 06:57:53;;;;;;;12.37;11.07;;;24.10;99.90;;;;;;5022160;28;20526;-75
2023/06/24 07:00:19;;;;;;;11.37;10.17;;;24.10;99.90;;;;;;5030377;28;20473;-74
2023/06/24 07:02:44;;;;;;;12.10;9.60;;;24.10;99.90;;;;;;5030808;28;20049;-74
2023/06/24 07:05:11;;;;;;;12.83;9.83;;;24.10;99.90;;;;;;5034346;28;20104;-72
2023/06/24 07:07:38;;;;;;;11.30;9.23;;;24.10;99.90;;;;;;5051680;28;20145;-73
2023/06/24 07:10:06;;;;;;;10.60;9.50;;;24.10;99.90;;;;;;5034627;28;20464;-76
2023/06/24 07:12:31;;;;;;;13.97;10.03;;;24.20;99.90;;;;;;5034597;28;20085;-75
2023/06/24 07:14:57;;;;;;;11.23;9.70;;;24.30;99.90;;;;;;5017954;28;20084;-76
2023/06/24 07:17:23;;;;;;;12.93;10.90;;;24.30;99.90;;;;;;5034653;28;20346;-74
2023/06/24 07:19:51;;;;;;;11.03;9.83;;;24.30;99.90;;;;;;5018353;28;20054;-76
2023/06/24 07:22:17;;;;;;;11.97;10.13;;;24.20;99.90;;;;;;5034467;28;20485;-75
2023/06/24 07:24:42;;;;;;;11.63;10.00;;;24.30;99.90;;;;;;5018211;28;20055;-76
2023/06/24 07:27:08;;;;;;;11.57;9.23;;;24.30;99.90;;;;;;5017505;28;20144;-76
2023/06/24 07:29:37;;;;;;;12.27;10.13;;;24.30;99.90;;;;;;5034298;28;20099;-76
2023/06/24 07:32:03;;;;;;;11.67;9.67;;;24.30;99.90;;;;;;5034382;28;20053;-76
2023/06/24 07:34:30;;;;;;;11.83;9.63;;;24.20;99.90;;;;;;5017843;28;20052;-75
2023/06/24 07:36:57;;;;;;;11.57;9.40;;;24.20;99.90;;;;;;5050839;28;20480;-76
2023/06/24 07:39:22;;;;;;;10.70;8.90;;;24.10;99.90;;;;;;5018064;28;20130;-75
2023/06/24 07:41:48;;;;;;;9.20;8.20;;;24.10;99.90;;;;;;5017617;28;20698;-75
2023/06/24 07:44:14;;;;;;;10.50;8.70;;;24.10;99.90;;;;;;5033920;28;20050;-76
2023/06/24 07:46:40;;;;;;;11.63;8.93;;;24.00;99.90;;;;;;5033922;28;20493;-74
2023/06/24 07:49:06;;;;;;;10.03;7.60;;;24.00;99.90;;;;;;5035105;28;20041;-76
2023/06/24 07:51:31;;;;;;;10.20;7.80;;;24.10;99.90;;;;;;5050805;28;20081;-75
2023/06/24 07:53:57;;;;;;;11.03;8.30;;;24.10;99.90;;;;;;5034953;28;20064;-76
2023/06/24 07:56:23;;;;;;;10.33;8.13;;;24.10;99.90;;;;;;5017513;28;20048;-76
2023/06/24 07:58:49;;;;;;;9.70;8.00;;;24.00;99.90;;;;;;5033823;28;20171;-76
2023/06/24 08:01:15;;;;;;;10.57;8.33;;;24.00;99.90;;;;;;5017405;28;20469;-76
2023/06/24 08:03:40;;;;;;;9.67;7.47;;;24.10;99.90;;;;;;5017304;28;20056;-75
2023/06/24 08:06:06;;;;;;;9.87;8.40;;;24.10;99.90;;;;;;5016652;28;20561;-75
2023/06/24 08:08:38;;;;;;;13.23;7.80;;;24.10;99.90;;;;;;5050346;28;20128;-77
2023/06/24 08:11:04;;;;;;;9.60;8.20;;;24.30;99.90;;;;;;5016979;28;20056;-77
2023/06/24 08:13:30;;;;;;;11.70;8.63;;;24.30;99.90;;;;;;5016794;28;20045;-77
2023/06/24 08:15:55;;;;;;;10.30;8.20;;;24.50;99.90;;;;;;5033211;28;20081;-76
2023/06/24 08:18:21;;;;;;;10.20;7.60;;;24.60;99.90;;;;;;5033304;28;20055;-76
2023/06/24 08:20:47;;;;;;;10.23;7.70;;;24.80;99.90;;;;;;5016955;28;20049;-75
2023/06/24 08:23:14;;;;;;;10.00;6.97;;;25.00;99.90;;;;;;5049544;28;20429;-76
2023/06/24 08:25:39;;;;;;;10.67;7.33;;;25.10;99.90;;;;;;5033061;28;20045;-75
2023/06/24 08:28:05;;;;;;;9.83;7.33;;;25.40;99.90;;;;;;5033205;28;20128;-75
2023/06/24 08:30:34;;;;;;;11.03;7.97;;;25.60;99.90;;;;;;5049712;28;20064;-74
2023/06/24 08:33:01;;;;;;;8.07;7.03;;;25.80;99.90;;;;;;5033374;28;20045;-75
2023/06/24 08:35:27;;;;;;;11.23;8.30;;;26.00;99.90;;;;;;5033271;28;20085;-76
2023/06/24 08:37:53;;;;;;;10.30;7.47;;;26.30;99.90;;;;;;5016939;28;20088;-75
2023/06/24 08:40:19;;;;;;;9.37;7.50;;;26.50;99.90;;;;;;5032951;28;20132;-76
2023/06/24 08:42:54;;;;;;;17.10;7.90;;;27.00;99.90;;;;;;5031500;28;20064;-75
2023/06/24 08:45:20;;;;;;;9.40;6.87;;;27.60;98.90;;;;;;4991791;28;20057;-77
2023/06/24 08:47:47;;;;;;;10.80;7.03;;;27.90;96.50;;;;;;5029846;28;20243;-76
2023/06/24 08:50:13;;;;;;;9.00;6.67;;;28.10;95.00;;;;;;5040522;28;20093;-76
2023/06/24 08:52:44;;;;;;;9.90;6.93;;;28.60;94.60;;;;;;5033646;28;20056;-75
2023/06/24 08:55:17;;;;;;;9.05;6.45;;;29.20;91.40;;;;;;5013643;28;20053;-75
2023/06/24 08:57:43;;;;;;;9.82;7.95;;;29.50;89.40;;;;;;5032641;28;20164;-75
2023/06/24 09:00:10;;;;;;;8.80;6.28;;;29.60;87.10;;;;;;5015871;28;20099;-78
2023/06/24 09:02:39;;;;;;;9.52;6.55;;;29.50;82.90;;;;;;4984489;28;20049;-76
2023/06/24 09:05:06;;;;;;;9.18;6.90;;;29.50;79.90;;;;;;5015881;28;20053;-76
2023/06/24 09:07:32;;;;;;;9.05;7.38;;;29.50;76.50;;;;;;5032544;28;20050;-76
2023/06/24 09:09:58;;;;;;;9.40;7.00;;;29.40;76.50;;;;;;5033558;28;20068;-75
2023/06/24 09:12:26;;;;;;;8.55;7.00;;;29.40;75.20;;;;;;5015839;28;20045;-75
2023/06/24 09:14:52;;;;;;;8.73;6.65;;;29.30;76.60;;;;;;5033890;28;20053;-75
2023/06/24 09:17:21;;;;;;;8.88;7.30;;;29.20;78.40;;;;;;5033373;28;20168;-75
2023/06/24 09:19:48;;;;;;;10.82;7.97;;;29.20;77.70;;;;;;5033402;28;20489;-75
2023/06/24 09:22:18;;;;;;;9.00;7.18;;;29.10;76.10;;;;;;5015559;28;20045;-75
2023/06/24 09:24:47;;;;;;;9.13;6.93;;;29.00;75.10;;;;;;5032586;28;20053;-75
2023/06/24 09:27:14;;;;;;;9.38;7.00;;;28.90;75.90;;;;;;5031084;28;20088;-75
2023/06/24 09:29:41;;;;;;;8.25;6.93;;;28.90;75.90;;;;;;5032463;28;20056;-75
2023/06/24 09:32:07;;;;;;;8.48;6.50;;;29.00;74.10;;;;;;5031847;28;20049;-76
2023/06/24 09:34:34;;;;;;;9.10;6.32;;;28.90;73.00;;;;;;5032008;28;20509;-75
2023/06/24 09:37:00;;;;;;;9.32;6.32;;;28.90;72.20;;;;;;5033122;28;20134;-74
2023/06/24 09:39:30;;;;;;;6.53;4.70;;;28.80;70.60;;;;;;5031780;28;20048;-74
2023/06/24 09:41:57;;;;;;;7.30;5.60;;;28.80;71.60;;;;;;5032218;28;20045;-74
2023/06/24 09:44:24;;;;;;;6.93;5.05;;;28.60;70.40;;;;;;5015399;28;20062;-75
2023/06/24 09:46:50;;;;;;;7.90;5.30;;;28.60;70.40;;;;;;5033303;28;20136;-75
2023/06/24 09:49:15;;;;;;;7.65;5.65;;;28.50;70.60;;;;;;5032775;28;20382;-76
2023/06/24 09:51:45;;;;;;;8.88;5.47;;;28.40;71.10;;;;;;5031892;28;20477;-74
2023/06/24 09:54:13;;;;;;;8.20;4.65;;;28.40;72.40;;;;;;5032862;28;20412;-76
2023/06/24 09:56:47;;;;;;;7.32;5.53;;;28.30;73.10;;;;;;5032961;28;20052;-75
2023/06/24 09:59:13;;;;;;;9.35;5.40;;;28.30;72.10;;;;;;5031377;28;20041;-75
2023/06/24 10:01:41;;;;;;;10.85;5.68;;;28.20;71.20;;;;;;5033007;28;20107;-76
2023/06/24 10:04:08;;;;;;;8.63;5.75;;;28.20;73.60;;;;;;5015117;28;20466;-75
2023/06/24 10:06:34;;;;;;;6.60;4.45;;;28.20;73.60;;;;;;5032699;28;20047;-75
2023/06/24 10:09:04;;;;;;;6.47;3.85;;;28.20;75.20;;;;;;5015231;28;20050;-76
2023/06/24 10:11:30;;;;;;;8.50;4.45;;;28.20;71.00;;;;;;5031305;28;20044;-76
2023/06/24 10:13:56;;;;;;;6.85;4.38;;;28.10;67.10;;;;;;5032710;28;20044;-75
2023/06/24 10:16:22;;;;;;;7.50;4.30;;;27.90;66.00;;;;;;5031184;28;20045;-75
2023/06/24 10:18:48;;;;;;;7.87;3.97;;;27.70;66.20;;;;;;5032525;28;20053;-74
2023/06/24 10:21:16;;;;;;;8.17;4.73;;;27.60;66.50;;;;;;5032452;28;20397;-76
2023/06/24 10:23:48;;;;;;;7.37;3.83;;;27.50;65.20;;;;;;5031683;28;20084;-74
2023/06/24 10:26:28;;;;;;;7.30;4.83;;;27.60;66.10;;;;;;5014932;28;20100;-76
2023/06/24 10:29:06;;;;;;;5.30;3.63;;;27.60;64.80;;;;;;5014975;28;20045;-75
2023/06/24 10:31:42;;;;;;;7.97;4.63;;;27.50;64.90;;;;;;5015026;28;20059;-74
2023/06/24 10:34:19;;;;;;;8.00;4.40;;;27.50;64.50;;;;;;5032354;28;20524;-76
2023/06/24 10:37:21;;;;;;;6.47;4.77;;;27.40;65.20;;;;;;5032615;28;20400;-78
2023/06/24 10:39:54;;;;;;;6.72;4.57;;;27.40;67.90;;;;;;4956157;28;20543;-75
2023/06/24 10:42:46;;;;;;;7.57;4.80;;;27.40;68.30;;;;;;5020774;28;20132;-74
2023/06/24 10:45:14;;;;;;;7.67;4.60;;;27.40;68.70;;;;;;5019092;28;20056;-76
2023/06/24 10:47:44;;;;;;;7.40;4.63;;;27.30;69.20;;;;;;5036027;28;20046;-76
2023/06/24 10:50:12;;;;;;;8.37;4.83;;;27.20;68.90;;;;;;5042455;28;20071;-75
2023/06/24 10:52:40;;;;;;;7.07;4.57;;;27.20;69.60;;;;;;5032072;28;20053;-75
2023/06/24 10:55:07;;;;;;;8.43;4.47;;;27.30;71.10;;;;;;5035970;28;20041;-75
2023/06/24 10:57:33;;;;;;;7.38;5.07;;;27.40;70.90;;;;;;5018520;28;20050;-76
2023/06/24 10:59:58;;;;;;;7.00;4.40;;;27.40;71.30;;;;;;5036107;28;20135;-76
2023/06/24 11:02:26;;;;;;;6.13;4.20;;;27.40;71.60;;;;;;5017970;28;20049;-77
2023/06/24 11:04:57;;;;;;;6.17;4.10;;;27.40;72.20;;;;;;5018107;28;20555;-76
2023/06/24 11:07:26;;;;;;;7.40;3.80;;;27.30;72.30;;;;;;5035518;28;20049;-74
2023/06/24 11:09:56;;;;;;;6.77;4.10;;;27.40;72.50;;;;;;5035555;28;20117;-76
2023/06/24 11:12:31;;;;;;;8.30;3.83;;;27.40;69.00;;;;;;5035259;28;20107;-76
2023/06/24 11:15:01;;;;;;;;;;;27.40;68.50;;;;;;5018882;28;20045;-76
2023/06/24 11:17:27;;;;;;;6.13;3.97;;;27.40;68.90;;;;;;5034731;28;19921;-76
2023/06/24 11:19:54;;;;;;;7.07;4.40;;;27.30;69.20;;;;;;5051323;28;20048;-76
2023/06/24 11:22:20;;;;;;;8.63;5.30;;;27.40;70.40;;;;;;5035632;28;20396;-76
2023/06/24 11:24:46;;;;;;;9.27;5.50;;;27.40;71.10;;;;;;5035736;28;20111;-76
2023/06/24 11:27:12;;;;;;;9.53;5.00;;;27.40;71.50;;;;;;5035821;28;20050;-77
2023/06/24 11:29:38;;;;;;;7.17;4.47;;;27.30;71.90;;;;;;5050702;28;20045;-76
2023/06/24 11:32:07;;;;;;;7.37;3.97;;;27.20;72.80;;;;;;5034786;28;20089;-75
2023/06/24 11:34:33;;;;;;;6.20;4.53;;;27.30;71.80;;;;;;5035448;28;20084;-78
2023/06/24 11:37:09;;;;;;;8.03;4.00;;;27.30;71.40;;;;;;5035602;28;20045;-76
2023/06/24 11:39:35;;;;;;;10.63;4.57;;;27.30;73.00;;;;;;5049287;28;20045;-74
2023/06/24 11:42:00;;;;;;;11.93;5.63;;;27.40;73.70;;;;;;5035358;28;20398;-76
2023/06/24 11:44:26;;;;;;;6.90;4.60;;;27.40;74.70;;;;;;5035621;28;20441;-77
2023/06/24 11:46:52;;;;;;;7.73;3.97;;;27.40;74.80;;;;;;5034668;28;20050;-77
2023/06/24 11:49:19;;;;;;;6.00;3.67;;;27.50;74.00;;;;;;5031235;28;20056;-85
2023/06/24 11:51:50;;;;;;;7.50;4.13;;;27.50;71.20;;;;;;5031029;28;20129;-77
2023/06/24 11:54:18;;;;;;;5.63;4.00;;;27.50;71.20;;;;;;5017218;28;20394;-79
2023/06/24 11:56:49;;;;;;;6.67;3.90;;;27.50;71.00;;;;;;5017041;28;20049;-78
2023/06/24 11:59:26;;;;;;;7.13;3.60;;;27.70;71.20;;;;;;5033901;28;20068;-78
2023/06/24 12:01:54;;;;;;;8.43;4.93;;;27.80;70.20;;;;;;5034425;28;20058;-78
2023/06/24 12:04:21;;;;;;;7.70;3.90;;;27.70;69.70;;;;;;5033853;28;20512;-79
2023/06/24 12:06:47;;;;;;;8.13;4.40;;;27.80;71.00;;;;;;5020346;28;20049;-77
2023/06/24 12:09:12;;;;;;;7.73;4.43;;;27.80;71.70;;;;;;5031789;28;20064;-79
2023/06/24 12:11:38;;;;;;;7.17;3.60;;;27.90;72.10;;;;;;5022388;28;20060;-79
2023/06/24 12:14:05;;;;;;;8.07;3.80;;;27.90;72.20;;;;;;5032761;28;20067;-78
2023/06/24 12:16:31;;;;;;;6.03;3.43;;;27.80;71.80;;;;;;5016274;28;20481;-77
2023/06/24 12:18:57;;;;;;;8.37;4.40;;;27.70;72.30;;;;;;5033082;28;20103;-77
2023/06/24 12:21:22;;;;;;;8.32;3.92;;;27.70;72.60;;;;;;5032109;28;20053;-80
2023/06/24 12:23:48;;;;;;;7.07;3.80;;;27.70;71.90;;;;;;5031697;28;20081;-80
2023/06/24 12:26:14;;;;;;;7.47;3.00;;;27.70;71.50;;;;;;4999917;28;20056;-78
2023/06/24 12:28:40;;;;;;;5.73;3.10;;;27.70;71.00;;;;;;5015747;28;20051;-79
2023/06/24 12:31:05;;;;;;;6.28;2.83;;;27.70;70.70;;;;;;5030225;28;20053;-80
2023/06/24 12:33:31;;;;;;;4.83;2.90;;;27.70;71.50;;;;;;5015213;28;20100;-82
2023/06/24 12:35:58;;;;;;;4.82;2.70;;;27.80;71.00;;;;;;5040482;28;20045;-79
2023/06/24 12:38:24;;;;;;;5.27;2.80;;;27.80;70.40;;;;;;5031729;28;20052;-76
2023/06/24 12:40:49;;;;;;;5.03;2.60;;;27.90;70.00;;;;;;5029738;28;20053;-77